Anne Sibum — C4YC2 — position and weather

sailwx.info

Track history (hours):
 
Tides and Currents Weather Stations Pressure Air Temp Water Temp Dewpoint Dewpoint Depression Visibility Wind Speed Wind Dir Waves Ship Positions

Anne Sibum

Last reported at 2014-Dec-17 11:32 UTC. Time now 2014-Dec-17 19:57 UTC.
Position N 55°38' E 015°24'.

Length 151 m; draft 6.6 m.

Type: Ship (hazmat cat A). MMSI: 209322000.

Date/timePositionNaut miles runAvg speedWind from/ knotsBaromVisibWave heightAir tempDewpointWater temp
2014-Dec-17 11:32N 55°38' E 015°24'1615.9
2014-Dec-17 10:33N 55°30' E 015°00'1616.1
2014-Dec-17 09:33N 55°21' E 014°36'1615.8
2014-Dec-17 08:33N 55°09' E 014°19'1514.7
2014-Dec-17 07:33N 54°59' E 013°59'1615.9
2014-Dec-17 06:33N 54°54' E 013°33'4916.0
2014-Dec-17 03:30N 54°32' E 012°17'1414.5
2014-Dec-17 02:33N 54°25' E 011°58'4916.5
2014-Dec-16 23:33N 54°33' E 010°33'1413.9
2014-Dec-16 22:33N 54°25' E 010°13'4 4.3
2014-Dec-16 21:33N 54°22' E 010°08'6 6.3
2014-Dec-16 20:33N 54°21' E 009°58'8 7.5
2014-Dec-16 19:32N 54°20' E 009°45'8 7.4
2014-Dec-16 18:28N 54°14' E 009°36'8 8.2
2014-Dec-16 17:28N 54°10' E 009°25'7 7.6
2014-Dec-16 16:33N 54°04' E 009°19'5 5.5
2014-Dec-16 15:33N 53°58' E 009°16'2 2.5
2014-Dec-16 14:33N 53°57' E 009°14'4 4.0
2014-Dec-16 13:33N 53°54' E 009°09'5 4.8
2014-Dec-16 12:33N 53°52' E 009°16'1615.6
2014-Dec-16 11:33N 53°39' E 009°31'1212.4
2014-Dec-16 10:33N 53°33' E 009°49'3 3.2
2014-Dec-16 09:32N 53°32' E 009°55'0 0.0
2014-Dec-16 08:25N 53°32' E 009°55'0 0.0
2014-Dec-16 07:25N 53°32' E 009°55'0 0.0
2014-Dec-16 06:21N 53°32' E 009°55'0 0.0
2014-Dec-16 05:06N 53°32' E 009°55'0 0.0
2014-Dec-16 04:05N 53°32' E 009°55'0 0.0
2014-Dec-16 03:29N 53°32' E 009°55'0 0.0
2014-Dec-16 02:14N 53°32' E 009°55'0 0.0
2014-Dec-16 01:04N 53°32' E 009°55'0 0.0
2014-Dec-15 23:33N 53°32' E 009°55'0 0.0
2014-Dec-15 22:33N 53°32' E 009°55'2 1.9
2014-Dec-15 21:29N 53°31' E 009°56'0 0.0
2014-Dec-15 20:31N 53°31' E 009°56'0 0.0
2014-Dec-15 19:31N 53°31' E 009°56'0 0.0
2014-Dec-15 18:30N 53°31' E 009°56'0 0.0
2014-Dec-15 17:33N 53°31' E 009°56'0 0.0
2014-Dec-15 16:27N 53°31' E 009°56'0 0.0
2014-Dec-15 15:32N 53°31' E 009°56'0 0.0
2014-Dec-15 14:31N 53°31' E 009°56'0 0.0
2014-Dec-15 13:33N 53°31' E 009°56'2 2.1
2014-Dec-15 12:33N 53°32' E 009°55'1 0.6
2014-Dec-15 11:33N 53°32' E 009°55'0 0.0
2014-Dec-15 10:28N 53°32' E 009°55'0 0.0
2014-Dec-15 09:22N 53°32' E 009°55'0 0.0
2014-Dec-15 08:24N 53°32' E 009°55'0 0.0
2014-Dec-15 07:33N 53°32' E 009°55'0 0.0
2014-Dec-15 06:33N 53°32' E 009°55'0 0.0
2014-Dec-15 05:32N 53°32' E 009°55'0 0.0
2014-Dec-15 04:32N 53°32' E 009°55'0 0.0
2014-Dec-15 03:31N 53°32' E 009°55'0 0.1
2014-Dec-15 02:33N 53°32' E 009°55'9 8.6
2014-Dec-15 01:33N 53°34' E 009°41'1211.8
2014-Dec-15 00:33N 53°43' E 009°28'1111.5
2014-Dec-14 23:33N 53°52' E 009°16'1111.0
2014-Dec-14 22:33N 53°51' E 008°58'1010.3
2014-Dec-14 21:33N 53°54' E 008°41'1211.6
2014-Dec-14 20:33N 53°59' E 008°23'1313.2
2014-Dec-14 19:34N 53°58' E 008°01'8 7.5
2014-Dec-14 18:33N 53°50' E 008°04'1616.1
2014-Dec-14 17:33N 53°39' E 008°24'5 5.2
2014-Dec-14 16:33N 53°36' E 008°31'0 0.0
2014-Dec-14 15:33N 53°36' E 008°31'0 0.0
2014-Dec-14 14:33N 53°36' E 008°31'0 0.0
2014-Dec-14 13:33N 53°36' E 008°31'0 0.0
2014-Dec-14 12:33N 53°36' E 008°31'0 0.0
2014-Dec-14 11:33N 53°36' E 008°31'0 0.0
2014-Dec-14 10:33N 53°36' E 008°31'8 7.7
2014-Dec-14 09:33N 53°41' E 008°21'1312.8
2014-Dec-14 08:33N 53°50' E 008°05'8 7.6
2014-Dec-14 07:30N 53°55' E 007°54'1213.0
2014-Dec-14 06:33N 54°01' E 008°13'1515.3
2014-Dec-14 05:33N 53°57' E 008°38'1212.2
2014-Dec-14 04:33N 53°51' E 008°55'8 8.3
2014-Dec-14 03:33N 53°54' E 009°09'1 0.6
2014-Dec-14 02:33N 53°54' E 009°09'4 4.4
2014-Dec-14 01:33N 53°57' E 009°14'8 8.2
2014-Dec-14 00:33N 54°05' E 009°19'10 7.0
2014-Dec-13 23:03N 54°12' E 009°33'2 3.0
2014-Dec-13 22:31N 54°13' E 009°35'9 7.6
2014-Dec-13 21:21N 54°20' E 009°44'6 7.2
2014-Dec-13 20:33N 54°21' E 009°54'6 5.8
2014-Dec-13 19:33N 54°22' E 010°03'2 2.3
2014-Dec-13 18:33N 54°22' E 010°07'1 0.7
2014-Dec-13 17:33N 54°22' E 010°08'4 3.6
2014-Dec-13 16:33N 54°25' E 010°13'1212.0
2014-Dec-13 15:33N 54°33' E 010°27'1514.5
2014-Dec-13 14:31N 54°35' E 010°53'1813.0
2014-Dec-13 13:05N 54°32' E 011°24'1214.2
2014-Dec-13 12:15N 54°27' E 011°43'1013.9
2014-Dec-13 11:32N 54°27' E 012°00'6712.4
2014-Dec-13 06:10N 54°60' E 013°40'712.1
2014-Dec-13 05:33N 55°02' E 013°53'1211.7
2014-Dec-13 04:33N 55°08' E 014°10'1211.6
2014-Dec-13 03:33N 55°17' E 014°23'1211.7
2014-Dec-13 02:33N 55°26' E 014°35'1110.7
2014-Dec-13 01:33N 55°32' E 014°51'1010.4
2014-Dec-13 00:33N 55°37' E 015°07'35712.3
2014-Dec-11 19:33N 59°38' E 023°20'1413.8
2014-Dec-11 18:32N 59°42' E 023°46'31 0.9
2014-Dec-10 07:13N 59°46' E 024°47'1116.6
2014-Dec-10 06:34N 59°44' E 024°26'3316.4
2014-Dec-10 04:33N 59°34' E 023°24'35516.1
2014-Dec-09 06:33N 55°35' E 015°15'1514.9
2014-Dec-09 05:33N 55°28' E 014°52'1514.5
2014-Dec-09 04:33N 55°18' E 014°32'1514.7
2014-Dec-09 03:33N 55°07' E 014°16'1514.3
2014-Dec-09 02:31N 54°59' E 013°55'5915.0
2014-Dec-08 22:33N 54°35' E 012°20'1414.2
2014-Dec-08 21:33N 54°25' E 012°03'5015.4
2014-Dec-08 18:17N 54°34' E 010°38'1114.7
2014-Dec-08 17:32N 54°30' E 010°20'1010.6
2014-Dec-08 16:33N 54°22' E 010°09'4 3.8
2014-Dec-08 15:33N 54°22' E 010°02'6 5.6
2014-Dec-08 14:31N 54°22' E 009°52'7 6.9
2014-Dec-08 13:33N 54°18' E 009°42'6 3.9
2014-Dec-08 12:06N 54°14' E 009°36'6 8.4
2014-Dec-08 11:23N 54°11' E 009°28'10 5.1
2014-Dec-08 09:28N 54°02' E 009°18'5 5.2
2014-Dec-08 08:32N 53°58' E 009°15'6 5.9
2014-Dec-08 07:33N 53°54' E 009°09'2 2.4
2014-Dec-08 06:33N 53°53' E 009°05'1111.2
2014-Dec-08 05:33N 53°51' E 008°46'1010.3
2014-Dec-08 04:33N 53°58' E 008°34'1312.9
2014-Dec-08 03:33N 53°59' E 008°12'1313.1
2014-Dec-08 02:33N 53°52' E 007°53'1313.4
2014-Dec-08 01:33N 53°45' E 008°12'1414.4
2014-Dec-08 00:33N 53°36' E 008°31'0 0.5
2014-Dec-07 23:32N 53°35' E 008°31'0 0.0
2014-Dec-07 22:32N 53°35' E 008°31'0 0.0
2014-Dec-07 21:31N 53°35' E 008°31'0 0.0
2014-Dec-07 20:31N 53°35' E 008°31'0 0.0
2014-Dec-07 19:34N 53°35' E 008°31'0 0.0
2014-Dec-07 18:33N 53°35' E 008°31'0 0.0
2014-Dec-07 17:33N 53°36' E 008°31'0 0.0
2014-Dec-07 16:33N 53°35' E 008°31'0 0.0
2014-Dec-07 15:33N 53°35' E 008°31'0 0.0
2014-Dec-07 14:32N 53°35' E 008°31'1 0.7
2014-Dec-07 13:33N 53°36' E 008°31'1313.4
2014-Dec-07 12:34N 53°44' E 008°13'1413.4
2014-Dec-07 11:33N 53°52' E 007°54'  
Track history (hours):
 
Tides and Currents Weather Stations Pressure Air Temp Water Temp Dewpoint Dewpoint Depression Visibility Wind Speed Wind Dir Waves Ship Positions

Anne Sibum

Last reported at 2014-Dec-17 11:32 UTC. Time now 2014-Dec-17 19:57 UTC.
Position N 55°38' E 015°24'.

Length 151 m; draft 6.6 m.

Type: Ship (hazmat cat A). MMSI: 209322000.

Date/timePositionNaut miles runAvg speedWind from/ knotsBaromVisibWave heightAir tempDewpointWater temp
2014-Dec-17 11:32N 55°38' E 015°24'1615.9
2014-Dec-17 10:33N 55°30' E 015°00'1616.1
2014-Dec-17 09:33N 55°21' E 014°36'1615.8
2014-Dec-17 08:33N 55°09' E 014°19'1514.7
2014-Dec-17 07:33N 54°59' E 013°59'1615.9
2014-Dec-17 06:33N 54°54' E 013°33'4916.0
2014-Dec-17 03:30N 54°32' E 012°17'1414.5
2014-Dec-17 02:33N 54°25' E 011°58'4916.5
2014-Dec-16 23:33N 54°33' E 010°33'1413.9
2014-Dec-16 22:33N 54°25' E 010°13'4 4.3
2014-Dec-16 21:33N 54°22' E 010°08'6 6.3
2014-Dec-16 20:33N 54°21' E 009°58'8 7.5
2014-Dec-16 19:32N 54°20' E 009°45'8 7.4
2014-Dec-16 18:28N 54°14' E 009°36'8 8.2
2014-Dec-16 17:28N 54°10' E 009°25'7 7.6
2014-Dec-16 16:33N 54°04' E 009°19'5 5.5
2014-Dec-16 15:33N 53°58' E 009°16'2 2.5
2014-Dec-16 14:33N 53°57' E 009°14'4 4.0
2014-Dec-16 13:33N 53°54' E 009°09'5 4.8
2014-Dec-16 12:33N 53°52' E 009°16'1615.6
2014-Dec-16 11:33N 53°39' E 009°31'1212.4
2014-Dec-16 10:33N 53°33' E 009°49'3 3.2
2014-Dec-16 09:32N 53°32' E 009°55'0 0.0
2014-Dec-16 08:25N 53°32' E 009°55'0 0.0
2014-Dec-16 07:25N 53°32' E 009°55'0 0.0
2014-Dec-16 06:21N 53°32' E 009°55'0 0.0
2014-Dec-16 05:06N 53°32' E 009°55'0 0.0
2014-Dec-16 04:05N 53°32' E 009°55'0 0.0
2014-Dec-16 03:29N 53°32' E 009°55'0 0.0
2014-Dec-16 02:14N 53°32' E 009°55'0 0.0
2014-Dec-16 01:04N 53°32' E 009°55'0 0.0
2014-Dec-15 23:33N 53°32' E 009°55'0 0.0
2014-Dec-15 22:33N 53°32' E 009°55'2 1.9
2014-Dec-15 21:29N 53°31' E 009°56'0 0.0
2014-Dec-15 20:31N 53°31' E 009°56'0 0.0
2014-Dec-15 19:31N 53°31' E 009°56'0 0.0
2014-Dec-15 18:30N 53°31' E 009°56'0 0.0
2014-Dec-15 17:33N 53°31' E 009°56'0 0.0
2014-Dec-15 16:27N 53°31' E 009°56'0 0.0
2014-Dec-15 15:32N 53°31' E 009°56'0 0.0
2014-Dec-15 14:31N 53°31' E 009°56'0 0.0
2014-Dec-15 13:33N 53°31' E 009°56'2 2.1
2014-Dec-15 12:33N 53°32' E 009°55'1 0.6
2014-Dec-15 11:33N 53°32' E 009°55'0 0.0
2014-Dec-15 10:28N 53°32' E 009°55'0 0.0
2014-Dec-15 09:22N 53°32' E 009°55'0 0.0
2014-Dec-15 08:24N 53°32' E 009°55'0 0.0
2014-Dec-15 07:33N 53°32' E 009°55'0 0.0
2014-Dec-15 06:33N 53°32' E 009°55'0 0.0
2014-Dec-15 05:32N 53°32' E 009°55'0 0.0
2014-Dec-15 04:32N 53°32' E 009°55'0 0.0
2014-Dec-15 03:31N 53°32' E 009°55'0 0.1
2014-Dec-15 02:33N 53°32' E 009°55'9 8.6
2014-Dec-15 01:33N 53°34' E 009°41'1211.8
2014-Dec-15 00:33N 53°43' E 009°28'1111.5
2014-Dec-14 23:33N 53°52' E 009°16'1111.0
2014-Dec-14 22:33N 53°51' E 008°58'1010.3
2014-Dec-14 21:33N 53°54' E 008°41'1211.6
2014-Dec-14 20:33N 53°59' E 008°23'1313.2
2014-Dec-14 19:34N 53°58' E 008°01'8 7.5
2014-Dec-14 18:33N 53°50' E 008°04'1616.1
2014-Dec-14 17:33N 53°39' E 008°24'5 5.2
2014-Dec-14 16:33N 53°36' E 008°31'0 0.0
2014-Dec-14 15:33N 53°36' E 008°31'0 0.0
2014-Dec-14 14:33N 53°36' E 008°31'0 0.0
2014-Dec-14 13:33N 53°36' E 008°31'0 0.0
2014-Dec-14 12:33N 53°36' E 008°31'0 0.0
2014-Dec-14 11:33N 53°36' E 008°31'0 0.0
2014-Dec-14 10:33N 53°36' E 008°31'8 7.7
2014-Dec-14 09:33N 53°41' E 008°21'1312.8
2014-Dec-14 08:33N 53°50' E 008°05'8 7.6
2014-Dec-14 07:30N 53°55' E 007°54'1213.0
2014-Dec-14 06:33N 54°01' E 008°13'1515.3
2014-Dec-14 05:33N 53°57' E 008°38'1212.2
2014-Dec-14 04:33N 53°51' E 008°55'8 8.3
2014-Dec-14 03:33N 53°54' E 009°09'1 0.6
2014-Dec-14 02:33N 53°54' E 009°09'4 4.4
2014-Dec-14 01:33N 53°57' E 009°14'8 8.2
2014-Dec-14 00:33N 54°05' E 009°19'10 7.0
2014-Dec-13 23:03N 54°12' E 009°33'2 3.0
2014-Dec-13 22:31N 54°13' E 009°35'9 7.6
2014-Dec-13 21:21N 54°20' E 009°44'6 7.2
2014-Dec-13 20:33N 54°21' E 009°54'6 5.8
2014-Dec-13 19:33N 54°22' E 010°03'2 2.3
2014-Dec-13 18:33N 54°22' E 010°07'1 0.7
2014-Dec-13 17:33N 54°22' E 010°08'4 3.6
2014-Dec-13 16:33N 54°25' E 010°13'1212.0
2014-Dec-13 15:33N 54°33' E 010°27'1514.5
2014-Dec-13 14:31N 54°35' E 010°53'1813.0
2014-Dec-13 13:05N 54°32' E 011°24'1214.2
2014-Dec-13 12:15N 54°27' E 011°43'1013.9
2014-Dec-13 11:32N 54°27' E 012°00'6712.4
2014-Dec-13 06:10N 54°60' E 013°40'712.1
2014-Dec-13 05:33N 55°02' E 013°53'1211.7
2014-Dec-13 04:33N 55°08' E 014°10'1211.6
2014-Dec-13 03:33N 55°17' E 014°23'1211.7
2014-Dec-13 02:33N 55°26' E 014°35'1110.7
2014-Dec-13 01:33N 55°32' E 014°51'1010.4
2014-Dec-13 00:33N 55°37' E 015°07'35712.3
2014-Dec-11 19:33N 59°38' E 023°20'1413.8
2014-Dec-11 18:32N 59°42' E 023°46'31 0.9
2014-Dec-10 07:13N 59°46' E 024°47'1116.6
2014-Dec-10 06:34N 59°44' E 024°26'3316.4
2014-Dec-10 04:33N 59°34' E 023°24'35516.1
2014-Dec-09 06:33N 55°35' E 015°15'1514.9
2014-Dec-09 05:33N 55°28' E 014°52'1514.5
2014-Dec-09 04:33N 55°18' E 014°32'1514.7
2014-Dec-09 03:33N 55°07' E 014°16'1514.3
2014-Dec-09 02:31N 54°59' E 013°55'5915.0
2014-Dec-08 22:33N 54°35' E 012°20'1414.2
2014-Dec-08 21:33N 54°25' E 012°03'5015.4
2014-Dec-08 18:17N 54°34' E 010°38'1114.7
2014-Dec-08 17:32N 54°30' E 010°20'1010.6
2014-Dec-08 16:33N 54°22' E 010°09'4 3.8
2014-Dec-08 15:33N 54°22' E 010°02'6 5.6
2014-Dec-08 14:31N 54°22' E 009°52'7 6.9
2014-Dec-08 13:33N 54°18' E 009°42'6 3.9
2014-Dec-08 12:06N 54°14' E 009°36'6 8.4
2014-Dec-08 11:23N 54°11' E 009°28'10 5.1
2014-Dec-08 09:28N 54°02' E 009°18'5 5.2
2014-Dec-08 08:32N 53°58' E 009°15'6 5.9
2014-Dec-08 07:33N 53°54' E 009°09'2 2.4
2014-Dec-08 06:33N 53°53' E 009°05'1111.2
2014-Dec-08 05:33N 53°51' E 008°46'1010.3
2014-Dec-08 04:33N 53°58' E 008°34'1312.9
2014-Dec-08 03:33N 53°59' E 008°12'1313.1
2014-Dec-08 02:33N 53°52' E 007°53'1313.4
2014-Dec-08 01:33N 53°45' E 008°12'1414.4
2014-Dec-08 00:33N 53°36' E 008°31'0 0.5
2014-Dec-07 23:32N 53°35' E 008°31'0 0.0
2014-Dec-07 22:32N 53°35' E 008°31'0 0.0
2014-Dec-07 21:31N 53°35' E 008°31'0 0.0
2014-Dec-07 20:31N 53°35' E 008°31'0 0.0
2014-Dec-07 19:34N 53°35' E 008°31'0 0.0
2014-Dec-07 18:33N 53°35' E 008°31'0 0.0
2014-Dec-07 17:33N 53°36' E 008°31'0 0.0
2014-Dec-07 16:33N 53°35' E 008°31'0 0.0
2014-Dec-07 15:33N 53°35' E 008°31'0 0.0
2014-Dec-07 14:32N 53°35' E 008°31'1 0.7
2014-Dec-07 13:33N 53°36' E 008°31'1313.4
2014-Dec-07 12:34N 53°44' E 008°13'1413.4
2014-Dec-07 11:33N 53°52' E 007°54'  

Dump ship's entire track history